Flight Track Log - Related Links

Times and Time Zones

All times are in EDT time to prevent confusion due to time zone crossing. See the SWA1096 flight status page for this flight to view local times or setup timezone preferences in your user account.

Time Position Orientation Groundspeed Altitude Reporting Facility
EDT Latitude Longitude Course Direction KTS MPH feet Rate Location/Type
Fri 04:26:24 PM 39.1833 -76.7000 247° West 154 177 1,600  Level Potomac TRACON
Fri 04:27:18 PM 39.1667 -76.7500 247° West 203 234 3,400 1,700 Climbing Potomac TRACON
Fri 04:28:24 PM 39.1167 -76.7000 142° Southeast 277 319 5,000 1,286 Climbing Potomac TRACON
Fri 04:29:24 PM 39.1167 -76.6000 90° East 277 319 6,100 2,223 Climbing Potomac TRACON
Fri 04:31:41 PM 39.1403 -76.3517 83° East 319 367 12,300 2,909 Climbing Washington Center
Fri 04:32:42 PM 39.1494 -76.2125 85° East 356 410 15,700 3,098 Climbing Washington Center
Fri 04:33:43 PM 39.1708 -76.0656 79° East 393 452 18,600 2,876 Climbing Washington Center
Fri 04:34:43 PM 39.1900 -75.9183 80° East 413 475 21,500 2,847 Climbing Washington Center
Fri 04:35:41 PM 39.2592 -75.7981 53° Northeast 394 453 24,200 2,471 Climbing Washington Center
Fri 04:36:42 PM 39.3447 -75.6856 45° Northeast 419 482 26,400 2,132 Climbing Washington Center
Fri 04:37:42 PM 39.4303 -75.5728 45° Northeast 426 490 28,500 2,100 Climbing Washington Center
Fri 04:38:42 PM 39.5197 -75.4569 45° Northeast 439 505 30,600 2,132 Climbing Washington Center
Fri 04:39:43 PM 39.6069 -75.3436 45° Northeast 444 511 32,800 1,190 Climbing Washington Center
Fri 04:40:43 PM 39.6922 -75.2275 46° Northeast 439 505 33,000 102 Climbing Washington Center
Fri 04:41:41 PM 39.7731 -75.1083 49° Northeast 439 505 33,000  Level Washington Center
Fri 04:43:42 PM 39.9336 -74.8803 47° Northeast 452 520 33,000  Level New York Center
Fri 04:44:40 PM 40.0256 -74.7531 47° Northeast 452 520 33,000  Level New York Center
Fri 04:45:42 PM 40.1108 -74.6331 47° Northeast 452 520 33,000  Level New York Center
Fri 04:46:40 PM 40.2186 -74.5847 19° North 419 482 33,000  Level New York Center
Fri 04:47:40 PM 40.3281 -74.5525 13° North 405 466 33,000  Level New York Center
Fri 04:48:41 PM 40.4311 -74.5256 11° North 399 459 33,000  Level New York Center
Fri 04:49:41 PM 40.5406 -74.4906 14° North 399 459 33,000  Level New York Center
Fri 04:50:41 PM 40.6542 -74.4583 12° North 399 459 33,000  Level New York Center
Fri 04:51:42 PM 40.7656 -74.4233 13° North 404 465 33,000  Level New York Center
Fri 04:53:28 PM 40.9814 -74.3619 12° North 412 474 33,000  Level Boston Center
Fri 04:54:28 PM 41.0944 -74.3294 12° North 412 474 33,000  Level Boston Center
Fri 04:55:28 PM 41.2056 -74.2942 13° North 412 474 33,000  Level Boston Center
Fri 04:56:28 PM 41.3019 -74.2583 16° North 412 474 33,000  Level Boston Center
Fri 04:57:28 PM 41.4150 -74.2228 13° North 407 468 33,000  Level Boston Center
Fri 04:58:28 PM 41.5386 -74.1900 11° North 407 468 33,000  Level Boston Center
Fri 04:59:28 PM 41.6475 -74.1542 14° North 412 474 33,000  Level Boston Center
Fri 05:00:28 PM 41.7586 -74.1183 14° North 412 474 33,000 -450 Level Boston Center
Fri 05:01:28 PM 41.8675 -74.0878 12° North 401 461 32,100 -950 Descending Boston Center
Fri 05:02:28 PM 41.9806 -74.0517 13° North 401 461 31,100 -1,000 Descending Boston Center
Fri 05:03:28 PM 42.0978 -74.0153 13° North 411 473 30,100 -1,000 Descending Boston Center
Fri 05:04:28 PM 42.2106 -73.9817 12° North 416 479 29,100 -1,000 Descending Boston Center
Fri 05:05:28 PM 42.3197 -73.9311 19° North 416 479 28,100 -1,000 Descending Boston Center
Fri 05:06:28 PM 42.3758 -73.7864 62° Northeast 395 455 27,100 -1,000 Descending Boston Center
Fri 05:07:28 PM 42.4169 -73.6325 70° East 400 460 26,100 -1,050 Descending Boston Center
Fri 05:08:28 PM 42.4603 -73.4842 68° East 405 466 25,000 -1,050 Descending Boston Center
Fri 05:09:28 PM 42.5011 -73.3300 70° East 417 480 24,000 -1,000 Descending Boston Center
Fri 05:10:28 PM 42.5439 -73.1842 68° East 427 491 23,000 -1,050 Descending Boston Center
Fri 05:11:28 PM 42.5864 -73.0322 69° East 427 491 21,900 -1,050 Descending Boston Center
Fri 05:12:28 PM 42.6244 -72.8944 69° East 411 473 20,900 -1,100 Descending Boston Center
Fri 05:13:28 PM 42.6542 -72.7450 75° East 406 467 19,700 -1,550 Descending Boston Center
Fri 05:14:28 PM 42.6836 -72.6122 73° East 382 440 17,800 -1,600 Descending Boston Center
Fri 05:15:28 PM 42.7089 -72.4908 74° East 371 427 16,500 -1,700 Descending Boston Center
Fri 05:16:28 PM 42.7358 -72.3553 75° East 371 427 14,400 -2,250 Descending Boston Center
Fri 05:17:28 PM 42.7628 -72.2111 76° East 371 427 12,000 -2,000 Descending Boston Center
Fri 05:18:28 PM 42.7894 -72.0808 74° East 357 411 10,400 -1,400 Descending Boston Center
Fri 05:19:28 PM 42.8456 -71.9956 48° Northeast 313 360 9,200 -1,450 Descending Boston Center
Fri 05:20:28 PM 42.8994 -71.9131 48° Northeast 294 338 7,500 -1,750 Descending Boston Center
Fri 05:21:28 PM 42.9531 -71.8386 45° Northeast 271 312 5,700 -1,500 Descending Boston Center
Fri 05:22:28 PM 43.0069 -71.7672 44° Northeast 265 305 4,500 -1,300 Descending Boston Center
Fri 05:23:28 PM 43.0272 -71.6761 73° East 245 282 3,100 -850 Descending Boston Center
Fri 05:24:28 PM 43.0411 -71.5936 77° East 227 261 2,800 -600 Descending Boston Center
Fri 05:25:28 PM 43.0344 -71.5225 97° East 196 226 1,900 -550 Descending Boston Center
Fri 05:26:28 PM 43.0069 -71.4775 130° Southeast 166 191 1,700 -500 Descending Boston Center
Fri 05:27:28 PM 42.9714 -71.4583 158° South 146 168 900 3,650 Descending Boston Center
Fri 05:28:28 PM 42.9442 -71.4389 152° Southeast 146 168 9,000 4,050 Climbing Boston Center
Fri 05:29:28 PM 42.9022 -71.4169 159° South 146 168 9,000  Level Boston Center
Fri 05:30:28 PM 42.8667 -71.3978 158° South 146 168 9,000  Level Boston Center
Fri 05:32:00 PM 42.9167 -71.4333 316° Northwest  Level FlightAware Approximate
Fri 05:39:00 PM 42.9328 -71.4358 316° Northwest  Level Estimated
Fri 05:40:00 PM 42.9328 -71.4358 316° Northwest  Level Estimated
Fri 05:41:00 PM 42.9328 -71.4358 316° Northwest  Level Estimated
Fri 05:42:00 PM 42.9328 -71.4358 316° Northwest  Level Estimated
Fri 05:43:00 PM 42.9328 -71.4358 316° Northwest  Level Estimated
Fri 05:44:00 PM 42.9328 -71.4358 316° Northwest  Level Estimated
Fri 05:45:00 PM 42.9328 -71.4358 316° Northwest  Level Estimated

Login

Don't have an account? Register now (free) for customized features, flight alerts, and more!